createdAt,value
2023-07-03T00:02:05.360Z,64.90
2023-07-03T00:04:42.762Z,65.30
2023-07-03T00:07:28.771Z,65.40
2023-07-03T00:10:17.599Z,65.30
2023-07-03T00:13:00.639Z,64.50
2023-07-03T00:15:34.103Z,64.70
2023-07-03T00:21:59.792Z,64.80
2023-07-03T00:24:42.735Z,65.20
2023-07-03T00:27:29.881Z,65.30
2023-07-03T00:30:07.326Z,65.60
2023-07-03T00:32:43.614Z,66.10
2023-07-03T00:35:53.808Z,66.20
2023-07-03T00:38:50.951Z,65.90
2023-07-03T00:41:43.796Z,66.30
2023-07-03T00:44:33.568Z,66.70
2023-07-03T00:47:02.024Z,66.30
2023-07-03T00:49:43.906Z,67.20
2023-07-03T00:55:35.651Z,66.60
2023-07-03T00:58:43.432Z,66.60
2023-07-03T01:01:29.664Z,67.20
2023-07-03T01:04:29.289Z,67.40
2023-07-03T01:07:31.047Z,67.10
2023-07-03T01:10:08.868Z,67.50
2023-07-03T01:12:55.568Z,67.50
2023-07-03T01:15:46.848Z,67.00
2023-07-03T01:21:31.483Z,67.70
2023-07-03T01:24:24.128Z,67.50
2023-07-03T01:27:18.105Z,67.10
2023-07-03T01:30:10.323Z,67.60
2023-07-03T01:32:58.444Z,67.20
2023-07-03T01:35:36.892Z,67.60
2023-07-03T01:38:26.762Z,67.50
2023-07-03T01:41:21.463Z,67.40
2023-07-03T01:44:01.653Z,67.30
2023-07-03T01:46:44.657Z,67.30
2023-07-03T01:49:48.543Z,67.30
2023-07-03T01:52:34.284Z,67.90
2023-07-03T01:58:01.050Z,67.70
2023-07-03T02:00:47.574Z,67.20
2023-07-03T02:03:25.310Z,67.70
2023-07-03T02:05:57.765Z,67.30
2023-07-03T02:08:41.783Z,67.40
2023-07-03T02:11:25.163Z,68.10
2023-07-03T02:14:40.216Z,67.80
2023-07-03T02:17:36.397Z,68.20
2023-07-03T02:20:17.891Z,68.10
2023-07-03T02:22:47.005Z,67.90
2023-07-03T02:25:20.551Z,68.00
2023-07-03T02:28:25.891Z,68.40
2023-07-03T02:31:22.136Z,68.40
2023-07-03T02:34:00.995Z,68.10
2023-07-03T02:36:49.096Z,68.90
2023-07-03T02:39:29.501Z,68.50
2023-07-03T02:42:20.247Z,69.20
2023-07-03T02:45:02.593Z,68.90
2023-07-03T02:47:49.593Z,68.80
2023-07-03T02:50:35.920Z,70.00
2023-07-03T02:53:09.082Z,69.30
2023-07-03T02:55:58.192Z,68.90
2023-07-03T02:58:41.780Z,68.90
2023-07-03T03:01:25.392Z,69.10
2023-07-03T03:04:18.028Z,68.90
2023-07-03T03:07:00.192Z,69.30
2023-07-03T03:09:43.262Z,68.50
2023-07-03T03:12:32.986Z,68.50
2023-07-03T03:15:06.473Z,68.80
2023-07-03T03:17:35.039Z,68.80
2023-07-03T03:20:18.386Z,68.70
2023-07-03T03:25:52.770Z,68.90
2023-07-03T03:28:39.798Z,68.70
2023-07-03T03:31:26.670Z,68.00
2023-07-03T03:34:17.717Z,68.80
2023-07-03T03:36:59.186Z,68.40
2023-07-03T03:39:56.616Z,68.20
2023-07-03T03:42:50.347Z,68.40
2023-07-03T03:45:44.990Z,68.20
2023-07-03T03:48:20.057Z,68.00
2023-07-03T03:51:16.004Z,68.70
2023-07-03T03:54:00.801Z,68.00
2023-07-03T03:56:47.959Z,67.80
2023-07-03T03:59:28.750Z,68.40
2023-07-03T04:02:15.200Z,68.60
2023-07-03T04:05:00.198Z,68.20
2023-07-03T04:10:25.596Z,68.20
2023-07-03T04:13:08.482Z,68.30
2023-07-03T04:16:05.147Z,68.10
2023-07-03T04:18:53.023Z,67.80
2023-07-03T04:21:29.633Z,67.70
2023-07-03T04:24:05.695Z,67.70
2023-07-03T04:26:55.379Z,68.00
2023-07-03T04:29:25.482Z,68.00
2023-07-03T04:31:56.243Z,67.80
2023-07-03T04:34:27.592Z,67.50
2023-07-03T04:36:58.840Z,67.60
2023-07-03T04:39:36.589Z,67.10
2023-07-03T04:42:16.599Z,66.40
2023-07-03T04:44:50.127Z,66.10
2023-07-03T04:47:22.968Z,65.90
2023-07-03T04:49:51.667Z,65.50
2023-07-03T04:52:24.651Z,65.30
2023-07-03T04:55:15.866Z,65.30
2023-07-03T04:57:49.640Z,65.10
2023-07-03T05:00:58.216Z,64.90
2023-07-03T05:03:45.485Z,64.00
2023-07-03T05:06:21.278Z,63.80
2023-07-03T05:09:15.204Z,63.50
2023-07-03T05:11:52.572Z,63.90
2023-07-03T05:14:33.453Z,63.80
2023-07-03T05:17:17.213Z,63.20
2023-07-03T05:19:51.622Z,63.30
2023-07-03T05:22:24.840Z,63.20
2023-07-03T05:25:04.325Z,62.60
2023-07-03T05:27:44.227Z,62.50
2023-07-03T05:30:44.418Z,62.20
2023-07-03T05:33:23.015Z,62.00
2023-07-03T05:36:07.637Z,61.90
2023-07-03T05:38:48.194Z,61.40
2023-07-03T05:41:25.672Z,61.70
2023-07-03T05:44:04.082Z,61.30
2023-07-03T05:47:11.967Z,61.30
2023-07-03T05:50:01.405Z,60.90
2023-07-03T05:55:49.651Z,60.70
2023-07-03T05:58:32.501Z,60.90
2023-07-03T06:01:07.376Z,61.10
2023-07-03T06:03:39.241Z,61.00
2023-07-03T06:06:18.896Z,60.90
2023-07-03T06:08:56.663Z,61.00
2023-07-03T06:11:26.285Z,61.40
2023-07-03T06:14:03.811Z,61.00
2023-07-03T06:17:01.756Z,60.80
2023-07-03T06:19:44.726Z,60.50
2023-07-03T06:22:33.474Z,60.60
2023-07-03T06:25:11.890Z,60.90
2023-07-03T06:27:40.412Z,60.90
2023-07-03T06:30:18.963Z,60.60
2023-07-03T06:32:47.435Z,60.80
2023-07-03T06:35:16.564Z,60.50
2023-07-03T06:37:46.347Z,60.00
2023-07-03T06:40:19.055Z,60.00
2023-07-03T06:42:50.602Z,60.20
2023-07-03T06:45:34.542Z,60.10
2023-07-03T06:48:06.847Z,60.10
2023-07-03T06:50:35.305Z,59.80
2023-07-03T06:53:13.591Z,60.30
2023-07-03T06:55:45.941Z,59.40
2023-07-03T06:58:23.541Z,58.80
2023-07-03T07:01:10.507Z,58.80
2023-07-03T07:03:49.335Z,58.60
2023-07-03T07:06:25.800Z,58.40
2023-07-03T07:09:07.068Z,58.00
2023-07-03T07:11:43.224Z,58.20
2023-07-03T07:14:20.572Z,57.90
2023-07-03T07:16:51.231Z,57.80
2023-07-03T07:19:21.059Z,58.10
2023-07-03T07:22:03.205Z,57.80
2023-07-03T07:24:43.721Z,57.70
2023-07-03T07:27:17.923Z,57.80
2023-07-03T07:29:54.634Z,57.00
2023-07-03T07:32:26.115Z,57.30
2023-07-03T07:34:54.479Z,57.30
2023-07-03T07:37:38.639Z,56.60
2023-07-03T07:40:13.424Z,56.80
2023-07-03T07:42:50.318Z,56.30
2023-07-03T07:45:24.197Z,56.60
2023-07-03T07:48:08.873Z,56.50
2023-07-03T07:50:53.080Z,56.00
2023-07-03T07:53:28.918Z,55.80
2023-07-03T07:56:06.276Z,56.00
2023-07-03T07:58:55.194Z,55.90
2023-07-03T08:01:26.222Z,55.60
2023-07-03T08:03:57.258Z,55.80
2023-07-03T08:06:29.399Z,55.90
2023-07-03T08:08:57.997Z,56.00
2023-07-03T08:11:29.711Z,56.10
2023-07-03T08:14:01.435Z,55.70
2023-07-03T08:16:35.774Z,55.50
2023-07-03T08:19:08.699Z,55.60
2023-07-03T08:21:49.110Z,55.20
2023-07-03T08:24:22.857Z,55.00
2023-07-03T08:27:03.826Z,54.10
2023-07-03T08:29:39.688Z,53.80
2023-07-03T08:38:35.354Z,53.50
2023-07-03T08:41:14.219Z,53.10
2023-07-03T08:43:53.765Z,53.40
2023-07-03T08:46:29.211Z,53.40
2023-07-03T08:49:13.443Z,53.50
2023-07-03T08:51:48.566Z,53.10
2023-07-03T08:54:33.653Z,53.30
2023-07-03T08:57:08.981Z,53.20
2023-07-03T08:59:50.961Z,53.40
2023-07-03T09:02:38.722Z,53.40
2023-07-03T09:05:31.292Z,53.30
2023-07-03T09:08:03.919Z,52.60
2023-07-03T09:10:38.871Z,52.60
2023-07-03T09:13:18.233Z,52.20
2023-07-03T09:15:57.460Z,52.00
2023-07-03T09:18:54.012Z,52.00
2023-07-03T09:21:33.480Z,51.90
2023-07-03T09:24:11.855Z,51.90
2023-07-03T09:26:52.994Z,51.30
2023-07-03T09:29:36.469Z,51.10
2023-07-03T09:32:16.708Z,51.10
2023-07-03T09:35:08.533Z,51.30
2023-07-03T09:37:51.961Z,50.80
2023-07-03T09:40:33.047Z,50.90
2023-07-03T09:43:09.625Z,50.90
2023-07-03T09:45:46.008Z,50.90
2023-07-03T09:48:31.694Z,51.00
2023-07-03T09:51:20.672Z,50.60
2023-07-03T09:54:00.639Z,50.50
2023-07-03T09:56:49.039Z,50.60
2023-07-03T09:59:34.305Z,50.00
2023-07-03T10:07:34.184Z,50.00
2023-07-03T10:12:46.136Z,51.00
2023-07-03T10:15:27.567Z,50.80
2023-07-03T10:18:11.220Z,51.70
2023-07-03T10:20:45.501Z,51.50
2023-07-03T10:23:18.908Z,51.60
2023-07-03T10:25:55.721Z,51.50
2023-07-03T10:28:38.618Z,51.90
2023-07-03T10:31:26.996Z,52.10
2023-07-03T10:37:28.643Z,51.80
2023-07-03T10:40:16.829Z,51.70
2023-07-03T10:43:03.077Z,51.80
2023-07-03T10:45:49.781Z,52.10
2023-07-03T10:48:41.622Z,51.70
2023-07-03T10:51:22.506Z,52.00
2023-07-03T10:54:08.861Z,52.10
2023-07-03T11:01:35.143Z,51.90
2023-07-03T11:04:26.378Z,51.50
2023-07-03T11:08:01.442Z,51.20
2023-07-03T11:10:45.057Z,51.50
2023-07-03T11:16:19.520Z,51.30
2023-07-03T11:25:09.664Z,50.60
2023-07-03T11:27:54.007Z,50.40
2023-07-03T11:57:41.527Z,47.90
2023-07-03T12:00:40.926Z,47.80
2023-07-03T12:04:50.378Z,47.20
2023-07-03T12:11:34.308Z,47.90
2023-07-03T12:18:35.510Z,46.20
2023-07-03T12:22:46.471Z,46.50
2023-07-03T12:29:53.888Z,45.10
2023-07-03T12:32:55.941Z,44.90
2023-07-03T12:35:46.820Z,43.80
2023-07-03T12:38:54.450Z,42.90
2023-07-03T12:41:58.989Z,42.80
2023-07-03T12:44:53.038Z,43.90
2023-07-03T12:50:52.258Z,42.60
2023-07-03T12:53:37.608Z,42.70
2023-07-03T12:56:23.837Z,41.50
2023-07-03T12:59:10.521Z,40.70
2023-07-03T13:01:47.699Z,40.30
2023-07-03T13:04:46.920Z,41.20
2023-07-03T13:07:38.717Z,41.30
2023-07-03T13:10:41.983Z,40.40
2023-07-03T13:16:43.559Z,40.50
2023-07-03T13:19:57.820Z,40.00
2023-07-03T13:23:12.216Z,39.20
2023-07-03T13:26:09.760Z,40.40
2023-07-03T13:29:21.910Z,38.90
2023-07-03T13:32:30.734Z,39.50
2023-07-03T13:35:44.708Z,40.20
2023-07-03T13:38:34.646Z,40.40
2023-07-03T13:41:15.551Z,40.10
2023-07-03T13:43:51.080Z,40.60
2023-07-03T13:46:19.999Z,40.10
2023-07-03T13:49:21.427Z,40.40
2023-07-03T13:51:52.591Z,39.50
2023-07-03T13:54:46.823Z,40.00
2023-07-03T13:57:18.700Z,39.20
2023-07-03T14:00:19.119Z,39.90
2023-07-03T14:02:55.020Z,40.20
2023-07-03T14:05:25.455Z,40.00
2023-07-03T14:08:04.594Z,40.30
2023-07-03T14:13:42.257Z,40.70
2023-07-03T14:16:18.191Z,41.40
2023-07-03T14:18:51.725Z,41.10
2023-07-03T14:21:32.692Z,41.20
2023-07-03T14:24:02.389Z,41.60
2023-07-03T14:26:40.431Z,41.10
2023-07-03T14:29:21.632Z,41.10
2023-07-03T14:31:53.293Z,41.10
2023-07-03T14:34:23.982Z,41.00
2023-07-03T14:36:59.187Z,40.40
2023-07-03T14:39:39.387Z,40.40
2023-07-03T14:42:20.469Z,40.30
2023-07-03T14:44:53.255Z,39.40
2023-07-03T14:47:31.609Z,40.70
2023-07-03T14:50:00.043Z,40.30
2023-07-03T14:52:36.838Z,40.30
2023-07-03T14:55:09.638Z,40.10
2023-07-03T14:57:40.855Z,40.10
2023-07-03T15:00:13.307Z,40.70
2023-07-03T15:02:43.421Z,40.10
2023-07-03T15:05:11.632Z,40.30
2023-07-03T15:07:40.499Z,40.80
2023-07-03T15:10:12.383Z,41.00
2023-07-03T15:12:45.414Z,41.60
2023-07-03T15:15:27.023Z,41.80
2023-07-03T15:17:58.131Z,41.80
2023-07-03T15:20:26.648Z,41.90
2023-07-03T15:22:57.302Z,42.00
2023-07-03T15:25:26.999Z,41.70
2023-07-03T15:27:58.158Z,41.10
2023-07-03T15:30:27.145Z,41.10
2023-07-03T15:32:58.151Z,40.60
2023-07-03T15:35:26.620Z,40.40
2023-07-03T15:38:00.109Z,40.00
2023-07-03T15:40:45.685Z,40.50
2023-07-03T15:43:14.136Z,40.10
2023-07-03T15:45:42.888Z,39.90
2023-07-03T15:48:13.753Z,40.20
2023-07-03T15:50:43.221Z,40.40
2023-07-03T15:53:12.797Z,40.00
2023-07-03T15:55:42.717Z,40.30
2023-07-03T15:58:11.029Z,40.10
2023-07-03T16:00:39.611Z,39.80
2023-07-03T16:03:08.059Z,39.70
2023-07-03T16:05:38.993Z,40.00
2023-07-03T16:08:07.444Z,39.70
2023-07-03T16:10:38.477Z,39.80
2023-07-03T16:13:09.816Z,40.10
2023-07-03T16:15:46.669Z,40.20
2023-07-03T16:18:14.943Z,40.50
2023-07-03T16:20:43.455Z,40.30
2023-07-03T16:23:13.595Z,40.20
2023-07-03T16:26:13.725Z,40.80
2023-07-03T16:28:43.725Z,41.30
2023-07-03T16:31:18.169Z,40.80
2023-07-03T16:33:56.342Z,40.70
2023-07-03T16:36:35.381Z,40.50
2023-07-03T16:39:17.275Z,40.40
2023-07-03T16:41:56.500Z,40.40
2023-07-03T16:44:30.547Z,41.30
2023-07-03T16:47:02.273Z,41.60
2023-07-03T16:50:12.194Z,41.20
2023-07-03T16:59:30.439Z,40.90
2023-07-03T17:02:19.698Z,41.00
2023-07-03T17:05:25.562Z,40.70
2023-07-03T17:08:21.001Z,40.70
2023-07-03T17:10:54.177Z,40.60
2023-07-03T17:13:25.370Z,40.10
2023-07-03T17:16:19.736Z,39.80
2023-07-03T17:19:18.071Z,39.70
2023-07-03T17:25:03.596Z,39.90
2023-07-03T17:27:35.471Z,39.80
2023-07-03T17:30:18.616Z,40.30
2023-07-03T17:33:13.277Z,40.00
2023-07-03T17:35:57.480Z,39.60
2023-07-03T17:38:30.192Z,40.40
2023-07-03T17:41:37.971Z,40.70
2023-07-03T17:47:11.579Z,40.20
2023-07-03T17:49:42.503Z,39.90
2023-07-03T17:52:27.616Z,40.10
2023-07-03T17:55:20.351Z,40.10
2023-07-03T17:57:55.308Z,40.20
2023-07-03T18:00:43.506Z,40.20
2023-07-03T18:03:46.367Z,40.40
2023-07-03T18:06:34.680Z,40.30
2023-07-03T18:09:41.880Z,40.40
2023-07-03T18:12:19.625Z,41.00
2023-07-03T18:14:52.578Z,41.40
2023-07-03T18:17:41.950Z,41.80
2023-07-03T18:20:28.129Z,41.90
2023-07-03T18:23:23.270Z,42.00
2023-07-03T18:26:09.280Z,42.30
2023-07-03T18:28:55.115Z,43.20
2023-07-03T18:31:45.040Z,43.50
2023-07-03T18:34:39.966Z,43.50
2023-07-03T18:37:14.879Z,43.90
2023-07-03T18:40:01.090Z,44.20
2023-07-03T18:45:59.678Z,44.70
2023-07-03T18:48:41.529Z,44.80
2023-07-03T18:51:45.461Z,44.90
2023-07-03T18:54:36.590Z,44.90
2023-07-03T18:57:39.970Z,45.60
2023-07-03T19:00:37.412Z,45.80
2023-07-03T19:03:42.414Z,45.40
2023-07-03T19:07:31.050Z,46.10
2023-07-03T19:13:54.469Z,46.60
2023-07-03T19:24:39.596Z,47.90
2023-07-03T19:27:16.862Z,48.00
2023-07-03T19:30:07.825Z,48.60
2023-07-03T19:32:52.854Z,49.00
2023-07-03T19:36:14.516Z,49.10
2023-07-03T19:42:36.368Z,49.90
2023-07-03T19:45:11.322Z,50.40
2023-07-03T19:47:57.743Z,50.60
2023-07-03T19:50:38.388Z,51.10
2023-07-03T19:53:14.518Z,51.70
2023-07-03T19:56:22.802Z,51.60
2023-07-03T19:58:54.005Z,52.50
2023-07-03T20:01:30.261Z,52.10
2023-07-03T20:04:12.118Z,52.60
2023-07-03T20:06:41.058Z,52.50
2023-07-03T20:09:31.592Z,53.00
2023-07-03T20:12:21.605Z,53.60
2023-07-03T20:17:58.514Z,53.70
2023-07-03T20:20:53.034Z,53.90
2023-07-03T20:23:32.961Z,54.20
2023-07-03T20:26:02.088Z,54.40
2023-07-03T20:28:44.279Z,54.40
2023-07-03T20:31:34.916Z,55.40
2023-07-03T20:34:10.336Z,55.00
2023-07-03T20:36:47.777Z,55.50
2023-07-03T20:39:34.401Z,55.70
2023-07-03T20:42:11.835Z,55.80
2023-07-03T20:44:45.247Z,55.70
2023-07-03T20:47:18.186Z,55.80
2023-07-03T20:50:06.717Z,56.10
2023-07-03T20:52:44.014Z,55.80
2023-07-03T20:55:38.277Z,56.20
2023-07-03T20:58:12.897Z,56.00
2023-07-03T21:00:50.339Z,56.40
2023-07-03T21:03:24.420Z,56.70
2023-07-03T21:05:55.958Z,56.40
2023-07-03T21:08:30.532Z,56.80
2023-07-03T21:11:45.487Z,56.90
2023-07-03T21:14:39.612Z,57.40
2023-07-03T21:17:46.994Z,57.00
2023-07-03T21:20:35.765Z,57.10
2023-07-03T21:23:30.421Z,56.90
2023-07-03T21:26:11.254Z,57.40
2023-07-03T21:32:00.523Z,57.30
2023-07-03T21:34:54.212Z,57.50
2023-07-03T21:37:39.612Z,58.00
2023-07-03T21:40:11.609Z,58.50
2023-07-03T21:43:06.286Z,57.70
2023-07-03T21:45:50.957Z,57.80
2023-07-03T21:48:42.711Z,58.40
2023-07-03T21:51:41.432Z,58.60
2023-07-03T21:54:21.015Z,58.60
2023-07-03T21:56:49.915Z,58.60
2023-07-03T21:59:25.547Z,58.70
2023-07-03T22:01:54.466Z,59.10
2023-07-03T22:04:33.441Z,59.80
2023-07-03T22:07:17.082Z,59.30
2023-07-03T22:09:59.168Z,59.40
2023-07-03T22:12:40.779Z,60.00
2023-07-03T22:15:31.888Z,59.80
2023-07-03T22:18:18.590Z,60.00
2023-07-03T22:21:17.212Z,60.00
2023-07-03T22:24:16.898Z,60.40
2023-07-03T22:27:14.074Z,60.50
2023-07-03T22:30:13.658Z,60.20
2023-07-03T22:33:08.533Z,60.70
2023-07-03T22:36:08.452Z,60.80
2023-07-03T22:39:07.658Z,61.30
2023-07-03T22:42:02.902Z,61.10
2023-07-03T22:44:33.869Z,61.00
2023-07-03T22:47:21.493Z,61.40
2023-07-03T22:53:10.783Z,61.40
2023-07-03T22:55:51.182Z,61.50
2023-07-03T22:58:46.116Z,61.50
2023-07-03T23:01:49.556Z,61.80
2023-07-03T23:04:35.118Z,61.80
2023-07-03T23:07:18.469Z,62.00
2023-07-03T23:09:52.562Z,62.00
2023-07-03T23:15:28.907Z,62.40
2023-07-03T23:18:21.036Z,62.60
2023-07-03T23:21:13.093Z,62.70
2023-07-03T23:26:59.000Z,62.50
2023-07-03T23:29:32.675Z,62.50
2023-07-03T23:32:32.670Z,62.90
2023-07-03T23:35:11.097Z,62.30
2023-07-03T23:37:42.640Z,62.60
2023-07-03T23:40:12.401Z,62.80
2023-07-03T23:42:40.724Z,62.60
2023-07-03T23:45:17.766Z,62.90
2023-07-03T23:47:55.018Z,63.20
2023-07-03T23:50:33.011Z,63.10
2023-07-03T23:53:30.290Z,63.30
2023-07-03T23:56:23.704Z,63.10
2023-07-03T23:59:11.405Z,63.00
